Time;durP1;ratioP1;P1;durP2;ratioP2;P2;SDS_P1;SDS_P2;PMS_P1;PMS_P2;Temp;Humidity;BMP_temperature;BMP_pressure;BME280_temperature;BME280_humidity;BME280_pressure;Samples;Min_cycle;Max_cycle;Signal;HPM_P1;HPM_P2
2022/10/30 00:00:17;;;;;;;39.97;21.33;;;13.00;95.60;;;;;;5032967;28;20180;-92
2022/10/30 00:02:45;;;;;;;30.27;22.90;;;12.90;95.60;;;;;;5033817;28;20259;-92
2022/10/30 00:05:11;;;;;;;34.37;21.40;;;13.00;95.60;;;;;;5032839;28;20177;-92
2022/10/30 00:07:36;;;;;;;37.60;22.85;;;12.90;95.60;;;;;;5032588;28;20731;-91
2022/10/30 00:10:02;;;;;;;35.00;21.63;;;12.90;95.60;;;;;;5031353;28;20172;-91
2022/10/30 00:12:28;;;;;;;36.00;21.73;;;12.90;95.60;;;;;;5030777;28;20200;-91
2022/10/30 00:14:53;;;;;;;35.13;20.40;;;12.90;95.60;;;;;;5030514;28;20184;-91
2022/10/30 00:17:19;;;;;;;42.80;22.23;;;12.90;95.70;;;;;;5028937;28;20184;-91
2022/10/30 00:19:44;;;;;;;41.70;21.70;;;13.00;95.70;;;;;;5029672;28;20176;-91
2022/10/30 00:22:10;;;;;;;31.33;21.50;;;13.00;95.60;;;;;;5028624;28;20230;-92
2022/10/30 00:24:35;;;;;;;33.42;21.23;;;13.00;95.70;;;;;;5030197;28;20184;-91
2022/10/30 00:27:01;;;;;;;30.93;20.60;;;13.00;95.70;;;;;;5028280;28;20199;-91
2022/10/30 00:29:26;;;;;;;40.27;21.03;;;12.90;95.60;;;;;;5029424;28;20184;-91
2022/10/30 00:31:52;;;;;;;49.10;24.07;;;13.10;95.70;;;;;;5029747;28;20207;-91
2022/10/30 00:34:18;;;;;;;43.77;21.93;;;13.10;95.70;;;;;;5028877;28;20201;-91
2022/10/30 00:36:44;;;;;;;36.90;21.67;;;13.00;95.70;;;;;;5027810;28;20180;-91
2022/10/30 00:39:10;;;;;;;32.90;21.03;;;13.00;95.70;;;;;;5029321;28;20176;-91
2022/10/30 00:41:38;;;;;;;29.95;19.65;;;12.90;95.60;;;;;;5029893;28;20217;-92
2022/10/30 00:44:35;;;;;;;43.70;22.43;;;12.90;95.70;;;;;;5031340;28;20184;-91
2022/10/30 00:47:03;;;;;;;41.83;21.07;;;12.90;95.70;;;;;;5036817;28;20237;-91
2022/10/30 00:49:32;;;;;;;30.30;20.77;;;12.90;95.70;;;;;;5038109;28;20240;-91
2022/10/30 00:51:58;;;;;;;36.97;20.07;;;12.80;95.70;;;;;;5036706;28;20196;-91
2022/10/30 00:54:24;;;;;;;30.37;18.63;;;12.80;95.70;;;;;;5033658;28;20285;-91
2022/10/30 00:56:50;;;;;;;35.57;19.50;;;12.80;95.60;;;;;;5031957;28;20192;-91
2022/10/30 00:59:24;;;;;;;30.17;19.70;;;12.80;95.60;;;;;;5050754;28;20173;-91
2022/10/30 01:01:52;;;;;;;30.13;18.27;;;12.80;95.70;;;;;;5031961;28;20201;-91
2022/10/30 01:04:19;;;;;;;32.37;19.80;;;12.80;95.70;;;;;;5032661;28;20184;-91
2022/10/30 01:06:47;;;;;;;36.33;20.13;;;12.80;95.60;;;;;;5032356;28;20176;-91
2022/10/30 01:09:14;;;;;;;39.90;22.17;;;12.80;95.70;;;;;;5031080;28;20184;-91
2022/10/30 01:11:40;;;;;;;36.57;20.97;;;12.90;95.70;;;;;;5030504;28;20220;-91
2022/10/30 01:14:08;;;;;;;36.57;21.47;;;12.90;95.70;;;;;;5049429;28;20177;-91
2022/10/30 01:17:01;;;;;;;38.30;20.83;;;13.00;95.70;;;;;;5029980;28;20271;-91
2022/10/30 01:19:41;;;;;;;41.37;22.37;;;13.10;95.70;;;;;;5031465;28;20165;-91
2022/10/30 01:22:34;;;;;;;31.57;22.17;;;13.10;95.70;;;;;;5031637;28;20204;-91
2022/10/30 01:25:37;;;;;;;38.40;22.20;;;13.10;95.70;;;;;;5028717;28;20180;-91
2022/10/30 01:28:14;;;;;;;36.97;21.30;;;13.10;95.70;;;;;;5031617;28;20228;-91
2022/10/30 01:30:56;;;;;;;38.87;21.23;;;13.20;95.80;;;;;;5032953;28;20172;-92
2022/10/30 01:33:37;;;;;;;35.73;20.90;;;13.20;95.70;;;;;;5033935;28;20216;-91
2022/10/30 01:36:24;;;;;;;43.40;22.00;;;13.10;95.70;;;;;;5035072;28;20517;-91
2022/10/30 01:38:54;;;;;;;33.80;21.50;;;13.10;95.70;;;;;;5034383;28;20196;-92
2022/10/30 01:41:19;;;;;;;33.47;20.13;;;13.10;95.70;;;;;;5034846;28;20201;-91
2022/10/30 01:43:49;;;;;;;35.73;21.20;;;13.10;95.70;;;;;;5033413;28;20216;-91
2022/10/30 01:46:22;;;;;;;35.90;20.57;;;13.10;95.70;;;;;;5034589;28;20176;-92
2022/10/30 01:49:15;;;;;;;36.50;20.40;;;13.10;95.70;;;;;;5036220;28;20172;-91
2022/10/30 01:52:00;;;;;;;34.23;20.13;;;13.10;95.70;;;;;;5036620;28;20197;-92
2022/10/30 01:54:41;;;;;;;27.70;19.97;;;13.10;95.70;;;;;;5038069;28;20207;-91
2022/10/30 01:57:33;;;;;;;32.20;17.27;;;13.00;95.70;;;;;;5035422;28;20630;-92
2022/10/30 02:00:08;;;;;;;27.70;17.07;;;13.10;95.80;;;;;;5032879;28;20172;-91
2022/10/30 02:02:34;;;;;;;30.30;15.97;;;13.10;95.70;;;;;;5032521;28;20216;-91
2022/10/30 02:05:00;;;;;;;29.30;15.37;;;13.00;95.60;;;;;;5031708;28;20243;-91
2022/10/30 02:07:26;;;;;;;31.90;15.30;;;12.90;95.60;;;;;;5033157;28;20185;-91
2022/10/30 02:09:53;;;;;;;35.17;14.77;;;12.90;95.60;;;;;;5034204;28;20696;-91
2022/10/30 02:12:20;;;;;;;33.00;16.50;;;12.80;95.60;;;;;;5034644;28;20205;-91
2022/10/30 02:14:49;;;;;;;30.87;14.30;;;12.80;95.60;;;;;;5035255;28;20192;-91
2022/10/30 02:17:15;;;;;;;31.87;16.40;;;12.80;95.60;;;;;;5033360;28;20188;-91
2022/10/30 02:19:41;;;;;;;31.53;15.17;;;12.80;95.60;;;;;;5032956;28;20177;-91
2022/10/30 02:22:07;;;;;;;28.43;14.50;;;12.80;95.60;;;;;;5033170;28;20232;-91
2022/10/30 02:24:33;;;;;;;39.60;17.83;;;12.60;95.50;;;;;;5031550;28;20185;-91
2022/10/30 02:26:59;;;;;;;23.53;14.83;;;12.50;95.50;;;;;;5029562;28;20177;-91
2022/10/30 02:29:24;;;;;;;29.43;14.77;;;12.50;95.50;;;;;;5031137;28;20211;-91
2022/10/30 02:31:50;;;;;;;22.80;14.80;;;12.50;95.50;;;;;;5035333;28;20201;-92
2022/10/30 02:34:16;;;;;;;24.87;14.87;;;12.50;95.50;;;;;;5032809;28;20193;-91
2022/10/30 02:36:41;;;;;;;28.73;13.37;;;12.50;95.50;;;;;;5031803;28;20188;-91
2022/10/30 02:39:07;;;;;;;27.37;14.40;;;12.50;95.50;;;;;;5032675;28;20176;-91
2022/10/30 02:41:32;;;;;;;29.67;15.17;;;12.50;95.50;;;;;;5032479;28;20567;-91
2022/10/30 02:43:58;;;;;;;27.80;19.13;;;12.40;95.50;;;;;;5031898;28;20250;-91
2022/10/30 02:46:24;;;;;;;33.97;19.37;;;12.60;95.60;;;;;;5033134;28;20188;-92
2022/10/30 02:48:49;;;;;;;29.43;19.23;;;12.60;95.50;;;;;;5034931;28;20172;-91
2022/10/30 02:51:15;;;;;;;29.47;18.63;;;12.60;95.50;;;;;;5035489;28;20204;-92
2022/10/30 02:53:41;;;;;;;32.50;18.43;;;12.50;95.50;;;;;;5036804;28;20185;-92
2022/10/30 02:56:08;;;;;;;35.20;16.97;;;12.50;95.50;;;;;;5035944;28;20184;-91
2022/10/30 02:58:34;;;;;;;29.30;17.83;;;12.50;95.50;;;;;;5034415;28;20279;-92
2022/10/30 03:01:14;;;;;;;34.23;17.37;;;12.50;95.50;;;;;;5034181;28;20191;-92
2022/10/30 03:03:41;;;;;;;26.83;17.27;;;12.40;95.50;;;;;;5034768;28;20200;-92
2022/10/30 03:06:09;;;;;;;27.00;16.73;;;12.50;95.50;;;;;;5034292;28;20240;-91
2022/10/30 03:08:35;;;;;;;24.40;16.20;;;12.40;95.50;;;;;;5029534;28;20203;-91
2022/10/30 03:11:06;;;;;;;25.23;16.10;;;12.30;95.50;;;;;;5028910;28;20177;-91
2022/10/30 03:13:33;;;;;;;26.50;16.60;;;12.30;95.50;;;;;;5027689;28;20627;-91
2022/10/30 03:16:01;;;;;;;32.77;18.73;;;12.40;95.50;;;;;;5028902;28;20185;-91
2022/10/30 03:18:26;;;;;;;25.83;18.30;;;12.30;95.50;;;;;;5029747;28;20184;-91
2022/10/30 03:20:56;;;;;;;29.33;17.00;;;12.30;95.40;;;;;;5030019;28;20329;-91
2022/10/30 03:23:21;;;;;;;31.87;18.33;;;12.30;95.50;;;;;;5032369;28;20204;-91
2022/10/30 03:25:51;;;;;;;29.87;17.67;;;12.30;95.50;;;;;;5032606;28;20184;-91
2022/10/30 03:28:16;;;;;;;27.80;17.10;;;12.30;95.50;;;;;;5032220;28;20179;-91
2022/10/30 03:30:42;;;;;;;30.43;17.93;;;12.30;95.50;;;;;;5030378;28;20172;-91
2022/10/30 03:33:07;;;;;;;34.87;16.30;;;12.30;95.50;;;;;;5029760;28;20318;-91
2022/10/30 03:35:35;;;;;;;34.07;17.27;;;12.20;95.50;;;;;;5029989;28;20683;-91
2022/10/30 03:38:00;;;;;;;31.87;17.37;;;12.20;95.40;;;;;;5030376;28;20215;-91
2022/10/30 03:40:26;;;;;;;32.90;18.10;;;12.10;95.40;;;;;;5032733;28;20168;-91
2022/10/30 03:42:52;;;;;;;30.53;17.83;;;12.20;95.50;;;;;;5032108;28;20208;-91
2022/10/30 03:45:17;;;;;;;25.50;17.33;;;12.20;95.40;;;;;;5031061;28;20189;-91
2022/10/30 03:47:43;;;;;;;30.03;17.70;;;12.20;95.50;;;;;;5025298;28;20280;-92
2022/10/30 03:50:08;;;;;;;37.53;18.43;;;12.20;95.50;;;;;;5018705;28;20214;-91
2022/10/30 03:52:34;;;;;;;30.47;18.67;;;12.20;95.50;;;;;;5017797;28;20208;-91
2022/10/30 03:54:59;;;;;;;35.33;19.60;;;12.30;95.60;;;;;;5018094;28;20310;-91
2022/10/30 03:57:25;;;;;;;27.53;18.20;;;12.30;95.50;;;;;;5017512;28;20181;-91
2022/10/30 03:59:50;;;;;;;33.73;18.90;;;12.30;95.50;;;;;;5017209;28;20199;-91
2022/10/30 04:02:16;;;;;;;34.93;19.20;;;12.30;95.50;;;;;;5017201;28;20201;-91
2022/10/30 04:04:42;;;;;;;31.47;19.30;;;12.30;95.60;;;;;;5017420;28;20222;-91
2022/10/30 04:07:07;;;;;;;29.93;19.67;;;12.30;95.50;;;;;;5017298;28;20737;-90
2022/10/30 04:09:33;;;;;;;33.37;18.07;;;12.30;95.60;;;;;;5017727;28;20197;-91
2022/10/30 04:11:58;;;;;;;29.83;18.20;;;12.30;95.60;;;;;;5017844;28;20228;-91
2022/10/30 04:14:24;;;;;;;27.60;17.07;;;12.30;95.60;;;;;;5018095;28;20173;-91
2022/10/30 04:16:49;;;;;;;24.50;18.70;;;12.30;95.60;;;;;;5017847;28;20188;-91
2022/10/30 04:19:15;;;;;;;28.40;17.07;;;12.30;95.60;;;;;;5017239;28;20207;-91
2022/10/30 04:21:42;;;;;;;30.03;16.80;;;12.30;95.60;;;;;;5016358;28;20195;-91
2022/10/30 04:24:08;;;;;;;23.33;16.60;;;12.30;95.50;;;;;;5017163;28;20291;-91
2022/10/30 04:26:33;;;;;;;27.50;16.07;;;12.40;95.60;;;;;;5017418;28;20636;-91
2022/10/30 04:28:59;;;;;;;33.37;16.20;;;12.30;95.60;;;;;;5018217;28;20198;-91
2022/10/30 04:31:25;;;;;;;24.13;16.13;;;12.40;95.50;;;;;;5017199;28;20243;-91
2022/10/30 04:33:50;;;;;;;27.53;16.80;;;12.40;95.50;;;;;;5018416;28;20192;-91
2022/10/30 04:36:17;;;;;;;27.43;16.60;;;12.30;95.50;;;;;;5018584;28;20177;-91
2022/10/30 04:38:42;;;;;;;30.77;15.37;;;12.30;95.50;;;;;;5019377;28;20182;-91
2022/10/30 04:41:08;;;;;;;24.00;15.53;;;12.20;95.40;;;;;;5018814;28;20203;-91
2022/10/30 04:43:34;;;;;;;28.20;16.23;;;12.00;95.30;;;;;;5018187;28;20620;-91
2022/10/30 04:46:04;;;;;;;23.93;15.40;;;12.00;95.30;;;;;;5017820;28;20176;-91
2022/10/30 04:48:29;;;;;;;31.77;15.70;;;11.90;95.30;;;;;;5018676;28;20256;-91
2022/10/30 04:50:57;;;;;;;30.53;16.53;;;12.00;95.40;;;;;;5017325;28;20203;-91
2022/10/30 04:53:23;;;;;;;25.10;15.97;;;12.00;95.40;;;;;;5018138;28;20235;-91
2022/10/30 04:55:53;;;;;;;25.13;15.37;;;12.00;95.40;;;;;;5017291;28;20180;-91
2022/10/30 04:58:18;;;;;;;27.73;15.20;;;12.00;95.30;;;;;;5017762;28;20208;-91
2022/10/30 05:00:44;;;;;;;28.80;14.37;;;12.00;95.40;;;;;;5017147;28;20188;-91
2022/10/30 05:03:20;;;;;;;25.03;14.03;;;12.00;95.30;;;;;;5016563;28;20208;-91
2022/10/30 05:05:54;;;;;;;21.13;14.13;;;12.00;95.30;;;;;;5016782;28;20255;-91
2022/10/30 05:08:19;;;;;;;21.37;13.23;;;11.90;95.30;;;;;;5017239;28;20193;-91
2022/10/30 05:10:45;;;;;;;25.30;12.53;;;11.90;95.30;;;;;;5016813;28;20185;-91
2022/10/30 05:13:11;;;;;;;19.60;12.43;;;11.90;95.30;;;;;;5017273;28;20211;-91
2022/10/30 05:15:37;;;;;;;24.83;13.23;;;11.90;95.30;;;;;;5018302;28;20173;-91
2022/10/30 05:18:02;;;;;;;21.43;13.40;;;11.80;95.20;;;;;;5017397;28;20173;-91
2022/10/30 05:20:28;;;;;;;23.50;13.13;;;11.70;95.20;;;;;;5017018;28;20177;-91
2022/10/30 05:22:58;;;;;;;26.30;15.03;;;11.70;95.20;;;;;;5017071;28;20216;-91
2022/10/30 05:25:24;;;;;;;25.93;16.07;;;11.80;95.30;;;;;;5017083;28;20192;-91
2022/10/30 05:27:50;;;;;;;39.33;17.70;;;12.00;95.40;;;;;;5017233;28;20188;-91
2022/10/30 05:30:15;;;;;;;31.80;16.97;;;12.10;95.40;;;;;;5017611;28;20177;-91
2022/10/30 05:32:41;;;;;;;29.33;16.87;;;12.10;95.40;;;;;;5019997;28;20276;-91
2022/10/30 05:35:07;;;;;;;23.60;13.83;;;12.00;95.40;;;;;;5021380;28;20250;-91
2022/10/30 05:37:33;;;;;;;25.60;12.97;;;12.00;95.30;;;;;;5020219;28;20180;-91
2022/10/30 05:39:58;;;;;;;26.80;11.97;;;12.00;95.30;;;;;;5020331;28;20243;-91
2022/10/30 05:42:24;;;;;;;20.87;12.17;;;11.80;95.20;;;;;;5021115;28;20662;-91
2022/10/30 05:44:49;;;;;;;21.87;12.00;;;11.80;95.20;;;;;;5020888;28;20176;-91
2022/10/30 05:47:15;;;;;;;32.63;13.40;;;11.70;95.20;;;;;;5020683;28;20180;-91
2022/10/30 05:49:40;;;;;;;23.10;12.47;;;11.80;95.30;;;;;;5020633;28;20176;-91
2022/10/30 05:52:06;;;;;;;26.00;13.63;;;11.90;95.40;;;;;;5020119;28;20753;-91
2022/10/30 05:54:31;;;;;;;27.30;14.33;;;11.90;95.40;;;;;;5020016;28;20185;-91
2022/10/30 05:56:57;;;;;;;35.70;15.23;;;12.20;95.50;;;;;;5020461;28;20234;-91
2022/10/30 05:59:23;;;;;;;34.03;15.47;;;12.20;95.50;;;;;;5020102;28;20212;-91
2022/10/30 06:01:48;;;;;;;33.93;16.03;;;12.20;95.50;;;;;;5020064;28;20670;-90
2022/10/30 06:04:14;;;;;;;23.73;14.80;;;12.20;95.50;;;;;;5019654;28;20634;-91
2022/10/30 06:06:39;;;;;;;26.73;14.23;;;12.10;95.40;;;;;;5019909;28;20176;-91
2022/10/30 06:09:05;;;;;;;32.73;13.57;;;12.00;95.30;;;;;;5020020;28;20173;-91
2022/10/30 06:11:30;;;;;;;33.10;13.50;;;12.00;95.30;;;;;;5019321;28;20690;-91
2022/10/30 06:13:56;;;;;;;21.53;14.97;;;12.00;95.40;;;;;;5019076;28;20181;-91
2022/10/30 06:16:22;;;;;;;27.30;14.67;;;12.00;95.40;;;;;;5019394;28;20188;-91
2022/10/30 06:18:47;;;;;;;20.70;14.63;;;12.00;95.40;;;;;;5019694;28;20177;-91
2022/10/30 06:21:13;;;;;;;33.17;16.00;;;12.00;95.40;;;;;;5019257;28;20250;-91
2022/10/30 06:23:38;;;;;;;28.30;14.77;;;12.10;95.40;;;;;;5020039;28;20204;-91
2022/10/30 06:26:04;;;;;;;32.67;16.53;;;12.10;95.40;;;;;;5020321;28;20172;-91
2022/10/30 06:28:30;;;;;;;32.67;15.37;;;12.10;95.50;;;;;;5019619;28;20195;-91
2022/10/30 06:30:55;;;;;;;24.83;15.37;;;12.10;95.40;;;;;;5019535;28;20230;-91
2022/10/30 06:33:21;;;;;;;28.57;16.80;;;12.10;95.40;;;;;;5019126;28;20655;-91
2022/10/30 06:35:48;;;;;;;29.23;21.80;;;12.10;95.40;;;;;;5019351;28;20192;-91
2022/10/30 06:38:15;;;;;;;30.17;21.53;;;12.20;95.50;;;;;;5019446;28;20326;-91
2022/10/30 06:40:40;;;;;;;31.57;20.57;;;12.20;95.40;;;;;;5019855;28;20181;-91
2022/10/30 06:43:06;;;;;;;33.93;19.03;;;12.20;95.40;;;;;;5019368;28;20209;-91
2022/10/30 06:45:32;;;;;;;36.17;18.10;;;12.20;95.40;;;;;;5019790;28;20180;-91
2022/10/30 06:48:00;;;;;;;26.03;18.50;;;12.10;95.40;;;;;;5019796;28;20173;-91
2022/10/30 06:50:26;;;;;;;31.97;18.13;;;12.00;95.30;;;;;;5020197;28;20244;-91
2022/10/30 06:52:53;;;;;;;24.97;17.40;;;12.00;95.30;;;;;;5019799;28;20196;-91
2022/10/30 06:55:19;;;;;;;29.27;16.77;;;11.90;95.30;;;;;;5020412;28;20263;-91
2022/10/30 06:57:44;;;;;;;35.00;19.97;;;11.90;95.30;;;;;;5019902;28;20204;-91
2022/10/30 07:00:11;;;;;;;36.40;20.73;;;12.00;95.40;;;;;;5019809;28;20177;-91
2022/10/30 07:02:37;;;;;;;31.93;20.27;;;12.10;95.40;;;;;;5019269;28;20211;-91
2022/10/30 07:05:03;;;;;;;28.07;20.30;;;12.20;95.40;;;;;;5017716;28;20176;-88
2022/10/30 07:07:29;;;;;;;34.47;20.07;;;12.20;95.40;;;;;;5017228;28;20173;-89
2022/10/30 07:09:54;;;;;;;33.57;18.37;;;12.20;95.40;;;;;;5017222;28;20631;-88
2022/10/30 07:12:20;;;;;;;38.83;21.37;;;12.20;95.40;;;;;;5022523;28;20199;-91
2022/10/30 07:14:46;;;;;;;24.27;20.83;;;12.20;95.40;;;;;;5025063;28;20196;-91
2022/10/30 07:17:11;;;;;;;34.40;19.97;;;12.20;95.40;;;;;;5019879;28;20238;-89
2022/10/30 07:19:37;;;;;;;29.30;20.43;;;12.20;95.40;;;;;;5018303;28;20235;-90
2022/10/30 07:22:02;;;;;;;35.37;21.30;;;12.30;95.40;;;;;;5017952;28;20192;-89
2022/10/30 07:24:28;;;;;;;32.53;22.00;;;12.30;95.40;;;;;;5018876;28;20192;-90
2022/10/30 07:26:54;;;;;;;37.63;21.90;;;12.30;95.40;;;;;;5020028;28;20188;-90
2022/10/30 07:29:20;;;;;;;30.90;21.60;;;12.30;95.40;;;;;;5017304;28;20627;-90
2022/10/30 07:31:46;;;;;;;34.27;22.13;;;12.40;95.40;;;;;;5019517;28;20198;-90
2022/10/30 07:34:12;;;;;;;29.07;20.53;;;12.40;95.30;;;;;;5017549;28;20224;-90
2022/10/30 07:36:37;;;;;;;33.67;20.17;;;12.50;95.40;;;;;;5017348;28;20208;-90
2022/10/30 07:39:03;;;;;;;37.00;20.87;;;12.40;95.30;;;;;;5016837;28;20553;-91
2022/10/30 07:41:28;;;;;;;34.83;20.63;;;12.50;95.30;;;;;;5016430;28;20204;-90
2022/10/30 07:43:54;;;;;;;32.13;21.73;;;12.50;95.30;;;;;;5016384;28;20557;-91
2022/10/30 07:46:19;;;;;;;38.30;21.70;;;12.50;95.30;;;;;;5016623;28;20176;-91
2022/10/30 07:48:45;;;;;;;33.47;22.63;;;12.50;95.30;;;;;;5016449;28;20187;-91
2022/10/30 07:51:10;;;;;;;35.63;21.53;;;12.50;95.30;;;;;;5016352;28;20197;-91
2022/10/30 07:53:36;;;;;;;34.87;21.73;;;12.50;95.30;;;;;;5016449;28;20180;-91
2022/10/30 07:56:02;;;;;;;44.90;22.33;;;12.50;95.30;;;;;;5016250;28;20247;-91
2022/10/30 07:58:27;;;;;;;42.63;22.10;;;12.60;95.20;;;;;;5016345;28;20188;-91
2022/10/30 08:00:53;;;;;;;36.83;21.00;;;12.60;95.20;;;;;;5016420;28;20187;-91
2022/10/30 08:03:18;;;;;;;38.67;21.50;;;12.60;95.10;;;;;;5016571;28;20204;-91
2022/10/30 08:05:44;;;;;;;36.17;21.50;;;12.70;95.20;;;;;;5016035;28;20597;-90
2022/10/30 08:08:09;;;;;;;37.50;20.70;;;12.70;95.20;;;;;;5017113;28;20198;-90
2022/10/30 08:10:35;;;;;;;34.03;20.93;;;12.70;95.20;;;;;;5016524;28;20192;-90
2022/10/30 08:13:01;;;;;;;38.37;23.13;;;12.80;95.20;;;;;;5020456;28;20222;-90
2022/10/30 08:15:27;;;;;;;38.17;22.77;;;12.80;95.20;;;;;;5018347;28;20208;-91
2022/10/30 08:17:52;;;;;;;37.50;22.57;;;12.80;95.20;;;;;;5016026;28;20212;-90
2022/10/30 08:20:20;;;;;;;37.57;22.60;;;13.00;95.30;;;;;;5016122;28;20180;-90
2022/10/30 08:22:48;;;;;;;34.70;21.77;;;13.10;95.30;;;;;;5016189;28;20212;-90
2022/10/30 08:25:14;;;;;;;29.50;22.13;;;13.20;95.30;;;;;;5017469;28;20177;-90
2022/10/30 08:27:52;;;;;;;40.87;22.23;;;13.20;95.20;;;;;;5017467;28;20256;-91
2022/10/30 08:30:18;;;;;;;34.97;21.53;;;13.30;95.20;;;;;;5016666;28;20172;-90
2022/10/30 08:32:43;;;;;;;29.53;20.93;;;13.40;95.20;;;;;;5016419;28;20246;-91
2022/10/30 08:35:09;;;;;;;32.10;20.70;;;13.50;95.20;;;;;;5016020;28;20200;-91
2022/10/30 08:37:38;;;;;;;36.67;22.83;;;13.60;95.10;;;;;;5016114;28;20173;-91
2022/10/30 08:40:04;;;;;;;38.17;21.70;;;13.80;95.10;;;;;;5016662;28;20227;-91
2022/10/30 08:42:29;;;;;;;37.80;19.83;;;13.80;94.90;;;;;;5015668;28;20205;-91
2022/10/30 08:44:55;;;;;;;34.37;19.07;;;13.90;94.80;;;;;;5015939;28;20177;-91
2022/10/30 08:47:20;;;;;;;30.73;18.00;;;14.00;94.70;;;;;;5015868;28;20173;-91
2022/10/30 08:49:46;;;;;;;36.80;18.67;;;14.10;94.60;;;;;;5015941;28;20180;-91
2022/10/30 08:52:11;;;;;;;33.00;18.70;;;14.20;94.50;;;;;;5016504;28;20647;-91
2022/10/30 08:54:37;;;;;;;38.03;17.33;;;14.40;94.10;;;;;;5015851;28;20204;-90
2022/10/30 08:57:02;;;;;;;27.23;17.67;;;14.50;93.70;;;;;;5033531;28;20262;-91
2022/10/30 08:59:28;;;;;;;31.85;19.10;;;14.60;93.40;;;;;;5015487;28;20281;-91
2022/10/30 09:01:53;;;;;;;27.40;17.50;;;14.80;93.20;;;;;;5015413;28;20205;-90
2022/10/30 09:04:19;;;;;;;35.50;18.87;;;14.90;92.90;;;;;;5017193;28;20204;-91
2022/10/30 09:06:45;;;;;;;37.45;17.73;;;15.00;92.60;;;;;;5018704;28;20184;-91
2022/10/30 09:09:10;;;;;;;26.40;16.80;;;15.10;92.40;;;;;;5019642;28;20549;-91
2022/10/30 09:11:36;;;;;;;31.95;17.05;;;15.20;91.90;;;;;;5019405;28;20266;-91
2022/10/30 09:14:02;;;;;;;30.25;16.33;;;15.30;91.80;;;;;;5019187;28;20223;-91
2022/10/30 09:16:27;;;;;;;29.08;17.10;;;15.40;91.60;;;;;;5019763;28;20172;-91
2022/10/30 09:18:53;;;;;;;33.83;16.27;;;15.40;91.10;;;;;;5019951;28;20214;-91
2022/10/30 09:21:18;;;;;;;31.02;17.15;;;15.60;91.10;;;;;;5019958;28;20235;-91
2022/10/30 09:23:44;;;;;;;33.88;17.45;;;15.60;91.00;;;;;;5019590;28;20209;-91
2022/10/30 09:26:10;;;;;;;30.98;16.98;;;15.80;90.90;;;;;;5019954;28;20184;-91
2022/10/30 09:28:35;;;;;;;25.15;15.02;;;15.80;90.20;;;;;;5019452;28;20177;-91
2022/10/30 09:31:01;;;;;;;27.23;14.63;;;16.00;90.00;;;;;;5019006;28;20180;-90
2022/10/30 09:33:27;;;;;;;24.95;15.25;;;16.00;89.60;;;;;;5019484;28;20550;-90
2022/10/30 09:35:53;;;;;;;35.70;14.98;;;15.90;89.00;;;;;;5019741;28;20180;-91
2022/10/30 09:38:18;;;;;;;35.13;15.75;;;15.90;89.40;;;;;;5019558;28;20191;-92
2022/10/30 09:43:23;;;;;;;28.08;14.93;;;16.20;89.20;;;;;;5057075;22;20242;-91
2022/10/30 09:46:08;;;;;;;28.00;15.68;;;16.30;88.60;;;;;;5021686;28;20310;-91
2022/10/30 09:49:05;;;;;;;29.25;15.00;;;16.40;88.70;;;;;;5038529;28;20173;-91
2022/10/30 09:51:34;;;;;;;23.88;14.48;;;16.50;88.10;;;;;;5042291;28;20204;-91
2022/10/30 09:54:20;;;;;;;31.70;14.57;;;16.60;87.70;;;;;;5044222;28;20169;-91
2022/10/30 09:56:48;;;;;;;32.97;14.68;;;16.70;87.50;;;;;;5034774;28;20267;-92
2022/10/30 09:59:31;;;;;;;29.65;15.35;;;16.90;86.90;;;;;;5025793;28;20176;-92
2022/10/30 10:02:01;;;;;;;26.42;14.77;;;16.90;86.90;;;;;;5027489;28;20260;-92
2022/10/30 10:04:42;;;;;;;38.10;16.23;;;17.00;86.70;;;;;;5023187;28;20184;-91
2022/10/30 10:07:39;;;;;;;29.17;14.20;;;17.10;86.40;;;;;;5040664;28;20647;-92
2022/10/30 10:10:16;;;;;;;26.17;14.60;;;17.10;85.90;;;;;;5035164;28;20177;-92
2022/10/30 10:12:46;;;;;;;36.30;14.88;;;17.20;85.90;;;;;;5031548;28;20231;-92
2022/10/30 10:15:38;;;;;;;27.58;14.30;;;17.20;85.60;;;;;;5029649;28;20184;-92
2022/10/30 10:18:13;;;;;;;34.05;15.32;;;17.30;85.50;;;;;;5025058;28;20203;-92
2022/10/30 10:20:42;;;;;;;23.95;13.85;;;17.40;85.20;;;;;;5026754;28;20183;-91
2022/10/30 10:23:29;;;;;;;23.15;13.70;;;17.60;85.20;;;;;;5025102;28;20205;-90
2022/10/30 10:25:59;;;;;;;25.83;13.98;;;17.60;84.50;;;;;;5020836;28;20169;-92
2022/10/30 10:29:04;;;;;;;27.20;13.85;;;17.70;84.60;;;;;;5019952;28;20210;-92
2022/10/30 10:31:50;;;;;;;27.85;14.10;;;17.70;84.50;;;;;;5018991;28;20204;-92
2022/10/30 10:34:39;;;;;;;22.92;13.98;;;17.70;84.00;;;;;;5018468;28;20173;-91
2022/10/30 10:37:43;;;;;;;29.92;13.63;;;17.90;84.50;;;;;;5037385;28;20161;-91
2022/10/30 10:40:34;;;;;;;26.00;13.45;;;17.90;83.90;;;;;;5034581;28;20242;-91
2022/10/30 10:43:19;;;;;;;28.15;13.68;;;18.10;84.20;;;;;;5019185;28;20242;-91
2022/10/30 10:45:57;;;;;;;26.45;13.60;;;18.20;84.20;;;;;;5036289;28;20180;-91
2022/10/30 10:48:37;;;;;;;26.98;14.13;;;18.30;83.80;;;;;;5036696;28;20639;-91
2022/10/30 10:51:21;;;;;;;24.15;14.18;;;18.40;82.90;;;;;;5018359;28;20234;-91
2022/10/30 10:54:15;;;;;;;27.10;15.25;;;18.30;82.60;;;;;;5019647;28;20180;-91
2022/10/30 10:56:45;;;;;;;26.92;13.55;;;18.30;82.60;;;;;;5017004;28;20188;-92
2022/10/30 10:59:19;;;;;;;24.30;14.75;;;18.40;83.10;;;;;;5020776;28;20177;-92
2022/10/30 11:02:22;;;;;;;22.88;14.27;;;18.40;82.90;;;;;;5021463;28;20196;-92
2022/10/30 11:04:52;;;;;;;33.10;14.75;;;18.50;83.10;;;;;;5019997;28;20188;-91
2022/10/30 11:07:28;;;;;;;28.42;13.60;;;18.50;82.40;;;;;;5022780;28;20181;-91
2022/10/30 11:09:55;;;;;;;30.27;12.85;;;18.60;81.70;;;;;;5021061;28;20233;-91
2022/10/30 11:12:40;;;;;;;26.55;15.10;;;18.60;81.30;;;;;;5019293;28;20200;-92
2022/10/30 11:15:22;;;;;;;31.25;14.73;;;18.60;81.80;;;;;;5020538;28;20199;-91
2022/10/30 11:18:08;;;;;;;24.80;14.48;;;18.70;82.30;;;;;;5019258;28;20183;-91
2022/10/30 11:20:50;;;;;;;31.05;15.40;;;18.50;81.50;;;;;;5018206;28;20172;-91
2022/10/30 11:23:38;;;;;;;29.20;14.30;;;18.70;82.00;;;;;;5021352;28;20268;-92
2022/10/30 11:26:24;;;;;;;31.30;14.07;;;18.80;81.60;;;;;;5037308;28;20176;-92
2022/10/30 11:28:57;;;;;;;25.20;14.23;;;18.80;81.00;;;;;;5035421;28;20165;-92
2022/10/30 11:31:42;;;;;;;22.15;14.75;;;18.80;81.90;;;;;;5019022;28;20207;-91
2022/10/30 11:34:17;;;;;;;29.00;14.70;;;18.90;81.50;;;;;;5029661;28;20199;-91
2022/10/30 11:36:48;;;;;;;25.02;13.57;;;19.00;82.20;;;;;;5025261;28;20184;-90
2022/10/30 11:39:21;;;;;;;32.70;14.15;;;19.00;81.90;;;;;;5019159;28;20176;-90
2022/10/30 11:42:12;;;;;;;25.45;15.07;;;18.90;80.50;;;;;;5023612;28;20220;-91
2022/10/30 11:44:48;;;;;;;34.33;14.27;;;19.00;81.90;;;;;;5031056;28;20240;-91
2022/10/30 11:47:16;;;;;;;25.88;14.40;;;19.00;81.80;;;;;;5022429;28;20169;-91
2022/10/30 11:49:47;;;;;;;39.38;13.73;;;19.00;81.40;;;;;;5035735;28;20186;-91
2022/10/30 11:52:16;;;;;;;26.88;15.10;;;19.00;80.90;;;;;;5035373;28;20551;-91
2022/10/30 11:54:47;;;;;;;23.42;14.25;;;19.00;81.20;;;;;;5040790;28;20168;-92
2022/10/30 11:57:22;;;;;;;28.33;13.57;;;19.10;81.60;;;;;;5030730;28;20199;-92
2022/10/30 11:59:53;;;;;;;26.50;13.15;;;19.20;80.40;;;;;;5034821;28;20178;-92
2022/10/30 12:02:27;;;;;;;31.17;14.25;;;19.10;80.90;;;;;;5030612;28;20192;-91
2022/10/30 12:04:59;;;;;;;28.60;14.25;;;19.20;80.10;;;;;;5030245;28;20187;-92
2022/10/30 12:07:30;;;;;;;30.98;14.00;;;19.30;80.30;;;;;;5024486;28;20173;-92
2022/10/30 12:09:58;;;;;;;20.90;13.93;;;19.70;81.30;;;;;;5024962;28;20169;-92
2022/10/30 12:12:36;;;;;;;27.55;13.05;;;20.00;80.10;;;;;;5024228;28;20197;-91
2022/10/30 12:15:12;;;;;;;21.58;13.90;;;19.80;79.00;;;;;;5023251;28;20188;-92
2022/10/30 12:17:39;;;;;;;25.77;13.55;;;19.70;79.00;;;;;;5025420;28;20176;-90
2022/10/30 12:20:07;;;;;;;26.17;14.25;;;19.70;79.80;;;;;;5021791;28;20215;-92
2022/10/30 12:22:34;;;;;;;28.88;13.57;;;19.60;79.40;;;;;;5022430;28;20212;-92
2022/10/30 12:25:05;;;;;;;29.15;14.00;;;19.80;79.20;;;;;;5034362;28;20171;-91
2022/10/30 12:27:35;;;;;;;24.40;13.05;;;19.70;79.10;;;;;;5022255;28;20168;-91
2022/10/30 12:30:04;;;;;;;25.65;13.40;;;19.90;79.00;;;;;;5024679;28;20184;-91
2022/10/30 12:32:40;;;;;;;31.20;13.95;;;20.00;79.10;;;;;;5032909;28;20287;-92
2022/10/30 12:35:45;;;;;;;27.27;13.10;;;19.90;79.30;;;;;;5036125;28;20172;-92
2022/10/30 12:38:37;;;;;;;29.52;14.55;;;19.90;77.80;;;;;;5036319;28;20200;-92
2022/10/30 12:41:25;;;;;;;31.25;13.55;;;20.10;79.20;;;;;;5022976;28;20188;-92
2022/10/30 12:43:59;;;;;;;36.10;15.02;;;20.30;78.00;;;;;;5052025;28;20200;-92